FAB2590 SBBR-SBRJ
Flight info
| Callsign | FAB2590 |
|---|---|
| Flight time | 1h 16m |
| Altitude | 39000 |
| Route | GEPMO UZ6 TOKIM |
| Aircraft | E190/M-SDE2E3FGHIJ1J3J4J7P2RUWYZ/S |
Departure
| Time | 2026-04-29 17:59 |
|---|---|
| Airport | Presidente Juscelino Kubitschek International Airport (SBBR) |
Arrival
| Time | 2026-04-29 19:16 |
|---|---|
| Airport | Santos Dumont Airport (SBRJ) |
| Time | Latitude | Longitude | Altitude | Speed | Heading |
|---|---|---|---|---|---|
| 2026-04-29 17:49 | -15.86607 | -47.90500 | 3482 ft | 0 kts | 266° |
| 2026-04-29 17:53 | -15.86607 | -47.90505 | 3484 ft | 2 kts | 266° |
| 2026-04-29 17:53 | -15.86606 | -47.90527 | 3484 ft | 4 kts | 284° |
| 2026-04-29 17:53 | -15.86578 | -47.90542 | 3483 ft | 5 kts | 356° |
| 2026-04-29 17:54 | -15.86533 | -47.90547 | 3484 ft | 8 kts | 338° |
| 2026-04-29 17:54 | -15.86522 | -47.90611 | 3482 ft | 12 kts | 265° |
| 2026-04-29 17:54 | -15.86522 | -47.90689 | 3479 ft | 8 kts | 296° |
| 2026-04-29 17:54 | -15.86463 | -47.90705 | 3480 ft | 10 kts | 355° |
| 2026-04-29 17:55 | -15.86424 | -47.90730 | 3482 ft | 11 kts | 296° |
| 2026-04-29 17:55 | -15.86427 | -47.90826 | 3481 ft | 16 kts | 266° |
| 2026-04-29 17:55 | -15.86435 | -47.90966 | 3474 ft | 23 kts | 266° |
| 2026-04-29 17:55 | -15.86447 | -47.91153 | 3468 ft | 28 kts | 266° |
| 2026-04-29 17:56 | -15.86461 | -47.91365 | 3466 ft | 31 kts | 266° |
| 2026-04-29 17:56 | -15.86481 | -47.91677 | 3465 ft | 33 kts | 266° |
| 2026-04-29 17:56 | -15.86491 | -47.91839 | 3467 ft | 33 kts | 266° |
| 2026-04-29 17:56 | -15.86507 | -47.92084 | 3467 ft | 35 kts | 266° |
| 2026-04-29 17:57 | -15.86524 | -47.92336 | 3468 ft | 35 kts | 265° |
| 2026-04-29 17:57 | -15.86540 | -47.92590 | 3464 ft | 35 kts | 266° |
| 2026-04-29 17:57 | -15.86505 | -47.92767 | 3460 ft | 14 kts | 352° |
| 2026-04-29 17:57 | -15.86488 | -47.92768 | 3458 ft | 3 kts | 357° |
| 2026-04-29 17:58 | -15.86443 | -47.92769 | 3459 ft | 9 kts | 2° |
| 2026-04-29 17:58 | -15.86368 | -47.92728 | 3458 ft | 15 kts | 45° |
| 2026-04-29 17:58 | -15.86343 | -47.92561 | 3461 ft | 45 kts | 87° |
| 2026-04-29 17:58 | -15.86305 | -47.91957 | 3465 ft | 122 kts | 86° |
| 2026-04-29 17:59 | -15.86240 | -47.90870 | 3741 ft | 168 kts | 86° |
| 2026-04-29 17:59 | -15.86165 | -47.89571 | 4487 ft | 200 kts | 89° |
| 2026-04-29 17:59 | -15.86597 | -47.88033 | 5055 ft | 237 kts | 123° |
| 2026-04-29 17:59 | -15.87746 | -47.86811 | 6544 ft | 243 kts | 140° |
| 2026-04-29 18:00 | -15.89370 | -47.85953 | 7437 ft | 279 kts | 168° |
| 2026-04-29 18:00 | -15.91339 | -47.85719 | 8632 ft | 301 kts | 172° |
| 2026-04-29 18:00 | -15.93576 | -47.85435 | 9014 ft | 345 kts | 173° |
| 2026-04-29 18:00 | -15.96103 | -47.85179 | 9360 ft | 387 kts | 174° |
| 2026-04-29 18:01 | -15.98824 | -47.84968 | 9225 ft | 390 kts | 176° |
| 2026-04-29 18:01 | -16.01459 | -47.84820 | 8664 ft | 370 kts | 176° |
| 2026-04-29 18:01 | -16.03895 | -47.84746 | 9165 ft | 325 kts | 179° |
| 2026-04-29 18:01 | -16.06141 | -47.84612 | 8960 ft | 323 kts | 174° |
| 2026-04-29 18:02 | -16.08369 | -47.84431 | 10228 ft | 321 kts | 178° |
| 2026-04-29 18:02 | -16.10649 | -47.84438 | 11234 ft | 332 kts | 181° |
| 2026-04-29 18:02 | -16.12974 | -47.84469 | 12295 ft | 337 kts | 180° |
| 2026-04-29 18:02 | -16.15326 | -47.84252 | 13264 ft | 345 kts | 163° |
| 2026-04-29 18:03 | -16.17426 | -47.83059 | 14162 ft | 348 kts | 137° |
| 2026-04-29 18:03 | -16.19159 | -47.81290 | 15181 ft | 351 kts | 132° |
| 2026-04-29 18:03 | -16.20900 | -47.79466 | 16096 ft | 358 kts | 133° |
| 2026-04-29 18:03 | -16.22687 | -47.77634 | 17023 ft | 363 kts | 134° |
| 2026-04-29 18:04 | -16.24511 | -47.75785 | 17893 ft | 369 kts | 134° |
| 2026-04-29 18:04 | -16.26366 | -47.73909 | 18640 ft | 375 kts | 134° |
| 2026-04-29 18:04 | -16.28252 | -47.72004 | 19336 ft | 380 kts | 134° |
| 2026-04-29 18:04 | -16.30163 | -47.70072 | 20020 ft | 385 kts | 134° |
| 2026-04-29 18:05 | -16.32094 | -47.68112 | 20688 ft | 390 kts | 134° |
| 2026-04-29 18:05 | -16.34046 | -47.66125 | 21357 ft | 395 kts | 134° |
| 2026-04-29 18:05 | -16.35994 | -47.64136 | 22027 ft | 399 kts | 133° |
| 2026-04-29 18:05 | -16.37991 | -47.62092 | 22685 ft | 404 kts | 133° |
| 2026-04-29 18:06 | -16.40005 | -47.60025 | 23342 ft | 408 kts | 133° |
| 2026-04-29 18:06 | -16.42033 | -47.57939 | 23932 ft | 412 kts | 133° |
| 2026-04-29 18:06 | -16.44074 | -47.55838 | 24499 ft | 414 kts | 133° |
| 2026-04-29 18:06 | -16.46128 | -47.53717 | 25014 ft | 417 kts | 133° |
| 2026-04-29 18:07 | -16.48194 | -47.51574 | 25518 ft | 420 kts | 133° |
| 2026-04-29 18:07 | -16.50269 | -47.49419 | 26020 ft | 423 kts | 133° |
| 2026-04-29 18:07 | -16.52358 | -47.47244 | 26522 ft | 426 kts | 134° |
| 2026-04-29 18:07 | -16.54455 | -47.45055 | 27010 ft | 428 kts | 134° |
| 2026-04-29 18:08 | -16.56568 | -47.42847 | 27485 ft | 431 kts | 134° |
| 2026-04-29 18:08 | -16.58693 | -47.40620 | 27967 ft | 434 kts | 134° |
| 2026-04-29 18:08 | -16.60826 | -47.38383 | 28450 ft | 436 kts | 134° |
| 2026-04-29 18:08 | -16.62969 | -47.36128 | 28865 ft | 440 kts | 134° |
| 2026-04-29 18:09 | -16.65126 | -47.33853 | 29313 ft | 441 kts | 134° |
| 2026-04-29 18:09 | -16.67296 | -47.31563 | 29647 ft | 446 kts | 133° |
| 2026-04-29 18:09 | -16.69455 | -47.29278 | 30025 ft | 448 kts | 134° |
| 2026-04-29 18:09 | -16.71643 | -47.26959 | 30381 ft | 449 kts | 134° |
| 2026-04-29 18:10 | -16.73845 | -47.24624 | 30687 ft | 451 kts | 134° |
| 2026-04-29 18:10 | -16.76053 | -47.22280 | 31016 ft | 452 kts | 134° |
| 2026-04-29 18:10 | -16.78263 | -47.19929 | 31266 ft | 456 kts | 134° |
| 2026-04-29 18:10 | -16.80489 | -47.17557 | 31602 ft | 457 kts | 134° |
| 2026-04-29 18:11 | -16.82720 | -47.15178 | 31818 ft | 461 kts | 134° |
| 2026-04-29 18:11 | -16.85051 | -47.12870 | 32126 ft | 460 kts | 145° |
| 2026-04-29 18:11 | -16.87742 | -47.11176 | 33019 ft | 445 kts | 153° |
| 2026-04-29 18:11 | -16.90442 | -47.09674 | 33831 ft | 435 kts | 153° |
| 2026-04-29 18:12 | -16.93107 | -47.08189 | 34240 ft | 434 kts | 153° |
| 2026-04-29 18:12 | -16.95775 | -47.06703 | 34562 ft | 435 kts | 153° |
| 2026-04-29 18:12 | -16.98461 | -47.05204 | 34687 ft | 440 kts | 153° |
| 2026-04-29 18:12 | -17.01163 | -47.03694 | 34962 ft | 441 kts | 153° |
| 2026-04-29 18:13 | -17.03872 | -47.02177 | 35259 ft | 441 kts | 153° |
| 2026-04-29 18:13 | -17.09345 | -46.99115 | 35277 ft | 456 kts | 153° |
| 2026-04-29 18:14 | -17.15019 | -46.95938 | 35332 ft | 468 kts | 153° |
| 2026-04-29 18:14 | -17.20819 | -46.92686 | 35620 ft | 473 kts | 153° |
| 2026-04-29 18:14 | -17.23710 | -46.91060 | 35950 ft | 470 kts | 153° |
| 2026-04-29 18:15 | -17.26584 | -46.89445 | 36297 ft | 467 kts | 153° |
| 2026-04-29 18:15 | -17.29445 | -46.87835 | 36623 ft | 465 kts | 153° |
| 2026-04-29 18:15 | -17.32293 | -46.86233 | 36812 ft | 466 kts | 153° |
| 2026-04-29 18:15 | -17.35147 | -46.84629 | 36995 ft | 466 kts | 154° |
| 2026-04-29 18:16 | -17.38006 | -46.83022 | 37211 ft | 465 kts | 154° |
| 2026-04-29 18:16 | -17.40857 | -46.81418 | 37442 ft | 465 kts | 153° |
| 2026-04-29 18:16 | -17.43706 | -46.79816 | 37675 ft | 464 kts | 154° |
| 2026-04-29 18:16 | -17.46550 | -46.78214 | 37910 ft | 463 kts | 154° |
| 2026-04-29 18:17 | -17.49392 | -46.76614 | 38124 ft | 463 kts | 154° |
| 2026-04-29 18:17 | -17.52189 | -46.75037 | 38341 ft | 463 kts | 154° |
| 2026-04-29 18:17 | -17.55027 | -46.73439 | 38491 ft | 463 kts | 154° |
| 2026-04-29 18:17 | -17.57872 | -46.71836 | 38671 ft | 463 kts | 154° |
| 2026-04-29 18:18 | -17.60713 | -46.70234 | 38845 ft | 463 kts | 154° |
| 2026-04-29 18:18 | -17.63535 | -46.68641 | 39061 ft | 461 kts | 154° |
| 2026-04-29 18:18 | -17.66371 | -46.67043 | 39048 ft | 462 kts | 154° |
| 2026-04-29 18:19 | -17.72039 | -46.63847 | 39024 ft | 463 kts | 154° |
| 2026-04-29 18:19 | -17.77714 | -46.60646 | 38954 ft | 463 kts | 154° |
| 2026-04-29 18:20 | -17.83396 | -46.57437 | 38965 ft | 463 kts | 154° |
| 2026-04-29 18:20 | -17.89036 | -46.54248 | 38959 ft | 463 kts | 154° |
| 2026-04-29 18:21 | -17.94707 | -46.51041 | 38963 ft | 464 kts | 154° |
| 2026-04-29 18:21 | -18.00419 | -46.47809 | 38987 ft | 468 kts | 154° |
| 2026-04-29 18:22 | -18.06083 | -46.44600 | 38976 ft | 469 kts | 154° |
| 2026-04-29 18:22 | -18.11824 | -46.41346 | 38971 ft | 468 kts | 154° |
| 2026-04-29 18:23 | -18.17566 | -46.38089 | 38975 ft | 469 kts | 154° |
| 2026-04-29 18:23 | -18.23320 | -46.34822 | 38978 ft | 469 kts | 154° |
| 2026-04-29 18:24 | -18.29026 | -46.31581 | 38982 ft | 469 kts | 154° |
| 2026-04-29 18:24 | -18.34778 | -46.28310 | 38989 ft | 470 kts | 154° |
| 2026-04-29 18:25 | -18.40526 | -46.25040 | 38990 ft | 470 kts | 154° |
| 2026-04-29 18:25 | -18.46295 | -46.21755 | 38992 ft | 471 kts | 154° |
| 2026-04-29 18:26 | -18.52075 | -46.18461 | 38995 ft | 471 kts | 154° |
| 2026-04-29 18:26 | -18.57801 | -46.15195 | 38993 ft | 470 kts | 154° |
| 2026-04-29 18:27 | -18.63563 | -46.11906 | 38999 ft | 471 kts | 154° |
| 2026-04-29 18:27 | -18.69326 | -46.08615 | 38992 ft | 471 kts | 154° |
| 2026-04-29 18:28 | -18.75092 | -46.05318 | 38996 ft | 471 kts | 154° |
| 2026-04-29 18:28 | -18.80858 | -46.02020 | 39000 ft | 471 kts | 154° |
| 2026-04-29 18:29 | -18.86618 | -45.98722 | 38997 ft | 471 kts | 154° |
| 2026-04-29 18:29 | -18.92383 | -45.95419 | 38996 ft | 471 kts | 154° |
| 2026-04-29 18:30 | -18.98130 | -45.92123 | 39001 ft | 470 kts | 154° |
| 2026-04-29 18:30 | -19.03853 | -45.88838 | 39001 ft | 471 kts | 154° |
| 2026-04-29 18:31 | -19.09627 | -45.85521 | 38999 ft | 471 kts | 154° |
| 2026-04-29 18:31 | -19.15395 | -45.82207 | 38998 ft | 472 kts | 154° |
| 2026-04-29 18:32 | -19.21161 | -45.78890 | 39004 ft | 471 kts | 154° |
| 2026-04-29 18:32 | -19.29820 | -45.73903 | 38996 ft | 472 kts | 154° |
| 2026-04-29 18:33 | -19.35555 | -45.70597 | 38989 ft | 472 kts | 154° |
| 2026-04-29 18:33 | -19.41330 | -45.67266 | 38993 ft | 472 kts | 154° |
| 2026-04-29 18:34 | -19.46120 | -45.64501 | 38991 ft | 473 kts | 155° |
| 2026-04-29 18:34 | -19.52880 | -45.60595 | 38990 ft | 473 kts | 155° |
| 2026-04-29 18:35 | -19.58660 | -45.57255 | 38987 ft | 473 kts | 154° |
| 2026-04-29 18:35 | -19.64437 | -45.53911 | 38996 ft | 472 kts | 155° |
| 2026-04-29 18:36 | -19.70183 | -45.50583 | 38986 ft | 474 kts | 155° |
| 2026-04-29 18:36 | -19.75969 | -45.47228 | 38990 ft | 474 kts | 155° |
| 2026-04-29 18:37 | -19.81764 | -45.43865 | 38990 ft | 474 kts | 155° |
| 2026-04-29 18:37 | -19.87527 | -45.40520 | 38989 ft | 475 kts | 155° |
| 2026-04-29 18:38 | -19.93336 | -45.37144 | 38997 ft | 475 kts | 155° |
| 2026-04-29 18:38 | -19.99131 | -45.33772 | 38997 ft | 474 kts | 155° |
| 2026-04-29 18:39 | -20.04921 | -45.30402 | 39011 ft | 474 kts | 155° |
| 2026-04-29 18:39 | -20.10723 | -45.27022 | 39000 ft | 476 kts | 155° |
| 2026-04-29 18:40 | -20.16530 | -45.23636 | 39002 ft | 476 kts | 155° |
| 2026-04-29 18:40 | -20.22355 | -45.20237 | 39005 ft | 476 kts | 155° |
| 2026-04-29 18:41 | -20.33963 | -45.13452 | 39011 ft | 478 kts | 155° |
| 2026-04-29 18:42 | -20.39792 | -45.10042 | 39010 ft | 478 kts | 155° |
| 2026-04-29 18:42 | -20.44637 | -45.07206 | 39007 ft | 478 kts | 155° |
| 2026-04-29 18:43 | -20.50478 | -45.03784 | 39008 ft | 480 kts | 155° |
| 2026-04-29 18:43 | -20.56335 | -45.00350 | 39009 ft | 480 kts | 155° |
| 2026-04-29 18:44 | -20.62186 | -44.96912 | 39005 ft | 480 kts | 155° |
| 2026-04-29 18:44 | -20.68036 | -44.93471 | 39008 ft | 480 kts | 155° |
| 2026-04-29 18:45 | -20.73894 | -44.90025 | 39010 ft | 481 kts | 155° |
| 2026-04-29 18:45 | -20.79764 | -44.86574 | 39013 ft | 481 kts | 155° |
| 2026-04-29 18:46 | -20.85624 | -44.83119 | 39008 ft | 481 kts | 155° |
| 2026-04-29 18:46 | -20.91445 | -44.79687 | 39008 ft | 480 kts | 155° |
| 2026-04-29 18:47 | -20.97301 | -44.76234 | 39011 ft | 480 kts | 155° |
| 2026-04-29 18:47 | -21.03161 | -44.72772 | 39009 ft | 480 kts | 155° |
| 2026-04-29 18:48 | -21.09023 | -44.69307 | 39013 ft | 481 kts | 155° |
| 2026-04-29 18:48 | -21.14879 | -44.65840 | 39013 ft | 481 kts | 155° |
| 2026-04-29 18:49 | -21.20736 | -44.62372 | 39015 ft | 480 kts | 155° |
| 2026-04-29 18:49 | -21.23631 | -44.60663 | 38734 ft | 485 kts | 155° |
| 2026-04-29 18:49 | -21.26584 | -44.58906 | 38420 ft | 482 kts | 155° |
| 2026-04-29 18:50 | -21.29536 | -44.57150 | 37673 ft | 490 kts | 155° |
| 2026-04-29 18:50 | -21.32519 | -44.55380 | 37112 ft | 489 kts | 155° |
| 2026-04-29 18:50 | -21.35502 | -44.53604 | 36415 ft | 491 kts | 155° |
| 2026-04-29 18:50 | -21.38488 | -44.51824 | 35733 ft | 492 kts | 154° |
| 2026-04-29 18:51 | -21.41489 | -44.50038 | 35096 ft | 492 kts | 154° |
| 2026-04-29 18:51 | -21.44495 | -44.48249 | 34411 ft | 494 kts | 154° |
| 2026-04-29 18:51 | -21.47478 | -44.46474 | 33749 ft | 496 kts | 154° |
| 2026-04-29 18:51 | -21.50498 | -44.44671 | 33133 ft | 497 kts | 154° |
| 2026-04-29 18:52 | -21.53530 | -44.42857 | 32431 ft | 500 kts | 154° |
| 2026-04-29 18:52 | -21.56581 | -44.41035 | 31784 ft | 502 kts | 154° |
| 2026-04-29 18:52 | -21.59650 | -44.39201 | 31101 ft | 506 kts | 154° |
| 2026-04-29 18:52 | -21.62736 | -44.37353 | 30429 ft | 510 kts | 154° |
| 2026-04-29 18:53 | -21.65849 | -44.35497 | 29666 ft | 513 kts | 154° |
| 2026-04-29 18:53 | -21.68968 | -44.33629 | 29046 ft | 513 kts | 153° |
| 2026-04-29 18:53 | -21.72092 | -44.31764 | 28347 ft | 512 kts | 153° |
| 2026-04-29 18:53 | -21.75188 | -44.29908 | 27659 ft | 507 kts | 153° |
| 2026-04-29 18:54 | -21.78263 | -44.28062 | 27002 ft | 501 kts | 153° |
| 2026-04-29 18:54 | -21.81252 | -44.26263 | 26348 ft | 496 kts | 153° |
| 2026-04-29 18:54 | -21.84255 | -44.24459 | 25680 ft | 492 kts | 153° |
| 2026-04-29 18:54 | -21.87234 | -44.22672 | 25036 ft | 487 kts | 153° |
| 2026-04-29 18:55 | -21.90187 | -44.20899 | 24374 ft | 484 kts | 153° |
| 2026-04-29 18:55 | -21.93117 | -44.19138 | 23734 ft | 480 kts | 153° |
| 2026-04-29 18:55 | -21.96124 | -44.17640 | 23089 ft | 472 kts | 161° |
| 2026-04-29 18:55 | -21.99160 | -44.16332 | 22469 ft | 467 kts | 160° |
| 2026-04-29 18:56 | -22.02153 | -44.15006 | 21856 ft | 463 kts | 160° |
| 2026-04-29 18:56 | -22.05112 | -44.13679 | 21224 ft | 459 kts | 160° |
| 2026-04-29 18:56 | -22.08049 | -44.12357 | 20628 ft | 454 kts | 159° |
| 2026-04-29 18:56 | -22.10953 | -44.11043 | 20020 ft | 451 kts | 159° |
| 2026-04-29 18:57 | -22.13832 | -44.09740 | 19415 ft | 447 kts | 159° |
| 2026-04-29 18:57 | -22.16686 | -44.08440 | 18830 ft | 443 kts | 159° |
| 2026-04-29 18:57 | -22.19485 | -44.07170 | 18247 ft | 440 kts | 159° |
| 2026-04-29 18:57 | -22.22279 | -44.05895 | 17644 ft | 429 kts | 159° |
| 2026-04-29 18:58 | -22.24990 | -44.04657 | 17087 ft | 418 kts | 158° |
| 2026-04-29 18:58 | -22.27646 | -44.03443 | 16544 ft | 410 kts | 158° |
| 2026-04-29 18:58 | -22.30262 | -44.02250 | 16006 ft | 405 kts | 158° |
| 2026-04-29 18:58 | -22.32841 | -44.01071 | 15452 ft | 401 kts | 158° |
| 2026-04-29 18:59 | -22.35398 | -43.99903 | 14936 ft | 397 kts | 158° |
| 2026-04-29 18:59 | -22.37932 | -43.98742 | 14396 ft | 394 kts | 157° |
| 2026-04-29 18:59 | -22.40441 | -43.97595 | 13879 ft | 389 kts | 157° |
| 2026-04-29 18:59 | -22.42918 | -43.96462 | 13340 ft | 383 kts | 157° |
| 2026-04-29 19:00 | -22.45326 | -43.95358 | 12861 ft | 378 kts | 157° |
| 2026-04-29 19:00 | -22.47746 | -43.94264 | 12369 ft | 375 kts | 157° |
| 2026-04-29 19:00 | -22.50142 | -43.93174 | 11874 ft | 371 kts | 157° |
| 2026-04-29 19:00 | -22.52512 | -43.92101 | 11389 ft | 367 kts | 157° |
| 2026-04-29 19:01 | -22.54853 | -43.91036 | 10899 ft | 362 kts | 157° |
| 2026-04-29 19:01 | -22.57158 | -43.89990 | 10418 ft | 357 kts | 157° |
| 2026-04-29 19:01 | -22.59434 | -43.88954 | 10022 ft | 351 kts | 157° |
| 2026-04-29 19:01 | -22.61671 | -43.87934 | 9651 ft | 347 kts | 157° |
| 2026-04-29 19:02 | -22.63889 | -43.86925 | 9355 ft | 345 kts | 157° |
| 2026-04-29 19:02 | -22.65361 | -43.86255 | 9185 ft | 347 kts | 157° |
| 2026-04-29 19:02 | -22.68340 | -43.84896 | 8789 ft | 347 kts | 156° |
| 2026-04-29 19:02 | -22.70563 | -43.83884 | 8496 ft | 346 kts | 156° |
| 2026-04-29 19:03 | -22.72747 | -43.82888 | 8196 ft | 335 kts | 156° |
| 2026-04-29 19:03 | -22.74863 | -43.81922 | 7946 ft | 325 kts | 157° |
| 2026-04-29 19:03 | -22.76892 | -43.80997 | 7699 ft | 318 kts | 157° |
| 2026-04-29 19:03 | -22.78923 | -43.80071 | 7454 ft | 315 kts | 157° |
| 2026-04-29 19:04 | -22.80947 | -43.79144 | 7255 ft | 317 kts | 156° |
| 2026-04-29 19:04 | -22.82969 | -43.78225 | 7050 ft | 313 kts | 157° |
| 2026-04-29 19:04 | -22.84976 | -43.77308 | 6926 ft | 311 kts | 156° |
| 2026-04-29 19:04 | -22.86964 | -43.76393 | 6938 ft | 311 kts | 157° |
| 2026-04-29 19:05 | -22.88966 | -43.75482 | 6938 ft | 312 kts | 157° |
| 2026-04-29 19:05 | -22.90970 | -43.74565 | 6937 ft | 313 kts | 157° |
| 2026-04-29 19:05 | -22.92975 | -43.73650 | 6941 ft | 313 kts | 157° |
| 2026-04-29 19:05 | -22.94876 | -43.72523 | 6947 ft | 312 kts | 139° |
| 2026-04-29 19:06 | -22.96196 | -43.70668 | 6961 ft | 312 kts | 117° |
| 2026-04-29 19:06 | -22.97153 | -43.68554 | 6938 ft | 313 kts | 115° |
| 2026-04-29 19:06 | -22.99131 | -43.64357 | 6909 ft | 312 kts | 114° |
| 2026-04-29 19:07 | -22.99608 | -43.62080 | 6731 ft | 309 kts | 87° |
| 2026-04-29 19:07 | -22.99334 | -43.60582 | 6699 ft | 307 kts | 70° |
| 2026-04-29 19:07 | -22.98061 | -43.57832 | 6491 ft | 308 kts | 61° |
| 2026-04-29 19:07 | -22.97075 | -43.55776 | 6310 ft | 307 kts | 63° |
| 2026-04-29 19:08 | -22.96128 | -43.53715 | 6147 ft | 304 kts | 63° |
| 2026-04-29 19:08 | -22.95204 | -43.51652 | 5952 ft | 305 kts | 64° |
| 2026-04-29 19:08 | -22.94286 | -43.49575 | 5688 ft | 304 kts | 64° |
| 2026-04-29 19:08 | -22.93528 | -43.47800 | 5475 ft | 302 kts | 64° |
| 2026-04-29 19:09 | -22.92650 | -43.45735 | 5172 ft | 300 kts | 64° |
| 2026-04-29 19:09 | -22.91788 | -43.43706 | 4880 ft | 293 kts | 64° |
| 2026-04-29 19:09 | -22.90955 | -43.41747 | 4398 ft | 277 kts | 64° |
| 2026-04-29 19:09 | -22.90180 | -43.39923 | 4016 ft | 258 kts | 64° |
| 2026-04-29 19:10 | -22.89443 | -43.38189 | 3623 ft | 249 kts | 64° |
| 2026-04-29 19:10 | -22.88725 | -43.36495 | 3282 ft | 244 kts | 64° |
| 2026-04-29 19:10 | -22.88029 | -43.34848 | 2959 ft | 244 kts | 66° |
| 2026-04-29 19:10 | -22.87471 | -43.33142 | 2645 ft | 230 kts | 71° |
| 2026-04-29 19:11 | -22.86999 | -43.31582 | 2460 ft | 206 kts | 71° |
| 2026-04-29 19:11 | -22.86558 | -43.30166 | 2349 ft | 191 kts | 71° |
| 2026-04-29 19:11 | -22.86138 | -43.28846 | 2234 ft | 177 kts | 71° |
| 2026-04-29 19:11 | -22.85754 | -43.27640 | 2096 ft | 163 kts | 71° |
| 2026-04-29 19:12 | -22.85390 | -43.26506 | 1936 ft | 154 kts | 72° |
| 2026-04-29 19:12 | -22.85305 | -43.25434 | 1841 ft | 131 kts | 101° |
| 2026-04-29 19:12 | -22.85562 | -43.24501 | 1736 ft | 130 kts | 108° |
| 2026-04-29 19:12 | -22.85729 | -43.23880 | 1646 ft | 130 kts | 104° |
| 2026-04-29 19:13 | -22.85963 | -43.22621 | 1384 ft | 130 kts | 100° |
| 2026-04-29 19:13 | -22.86108 | -43.21660 | 1128 ft | 130 kts | 100° |
| 2026-04-29 19:13 | -22.86254 | -43.20709 | 959 ft | 127 kts | 100° |
| 2026-04-29 19:13 | -22.86387 | -43.19776 | 772 ft | 124 kts | 101° |
| 2026-04-29 19:14 | -22.86543 | -43.18844 | 563 ft | 123 kts | 113° |
| 2026-04-29 19:14 | -22.86936 | -43.18054 | 516 ft | 117 kts | 126° |
| 2026-04-29 19:14 | -22.87393 | -43.17308 | 553 ft | 124 kts | 129° |
| 2026-04-29 19:14 | -22.88032 | -43.16640 | 526 ft | 131 kts | 149° |
| 2026-04-29 19:15 | -22.88920 | -43.16394 | 401 ft | 137 kts | 177° |
| 2026-04-29 19:15 | -22.89843 | -43.16354 | 177 ft | 130 kts | 176° |
| 2026-04-29 19:15 | -22.90709 | -43.16305 | 26 ft | 111 kts | 176° |
| 2026-04-29 19:15 | -22.91308 | -43.16265 | 19 ft | 58 kts | 176° |
| 2026-04-29 19:16 | -22.91497 | -43.16259 | 22 ft | 12 kts | 198° |
| 2026-04-29 19:16 | -22.91524 | -43.16357 | 20 ft | 17 kts | 279° |
| 2026-04-29 19:16 | -22.91469 | -43.16434 | 21 ft | 10 kts | 315° |
| 2026-04-29 19:16 | -22.91394 | -43.16498 | 21 ft | 17 kts | 341° |
| 2026-04-29 19:17 | -22.91259 | -43.16511 | 23 ft | 23 kts | 356° |
| 2026-04-29 19:17 | -22.91084 | -43.16531 | 21 ft | 27 kts | 350° |
| 2026-04-29 19:17 | -22.90896 | -43.16547 | 21 ft | 23 kts | 356° |
| 2026-04-29 19:17 | -22.90796 | -43.16542 | 21 ft | 11 kts | 8° |
| 2026-04-29 19:18 | -22.90731 | -43.16544 | 21 ft | 11 kts | 357° |
| 2026-04-29 19:18 | -22.90687 | -43.16547 | 21 ft | 9 kts | 355° |
| 2026-04-29 19:18 | -22.90674 | -43.16615 | 21 ft | 9 kts | 266° |
| 2026-04-29 19:18 | -22.90674 | -43.16627 | 21 ft | 0 kts | 266° |